sensor_id;sensor_type;location;lat;lon;timestamp;temperature;humidity
13808;DHT22;40769;51.512;5.494;2023-07-22T00:02:23;18.70;99.90
13808;DHT22;40769;51.512;5.494;2023-07-22T00:04:49;18.70;99.90
13808;DHT22;40769;51.512;5.494;2023-07-22T00:07:15;18.70;99.90
13808;DHT22;40769;51.512;5.494;2023-07-22T00:09:42;18.70;99.90
13808;DHT22;40769;51.512;5.494;2023-07-22T00:12:08;18.90;99.90
13808;DHT22;40769;51.512;5.494;2023-07-22T00:14:39;18.70;99.90
13808;DHT22;40769;51.512;5.494;2023-07-22T00:17:05;18.70;99.90
13808;DHT22;40769;51.512;5.494;2023-07-22T00:19:31;18.70;99.90
13808;DHT22;40769;51.512;5.494;2023-07-22T00:21:57;19.80;99.90
13808;DHT22;40769;51.512;5.494;2023-07-22T00:24:22;18.70;99.90
13808;DHT22;40769;51.512;5.494;2023-07-22T00:26:49;18.70;99.90
13808;DHT22;40769;51.512;5.494;2023-07-22T00:29:15;18.70;99.90
13808;DHT22;40769;51.512;5.494;2023-07-22T00:31:41;18.70;99.90
13808;DHT22;40769;51.512;5.494;2023-07-22T00:34:10;18.70;99.90
13808;DHT22;40769;51.512;5.494;2023-07-22T00:36:36;18.70;99.90
13808;DHT22;40769;51.512;5.494;2023-07-22T00:39:06;18.70;99.90
13808;DHT22;40769;51.512;5.494;2023-07-22T00:41:31;17.80;99.90
13808;DHT22;40769;51.512;5.494;2023-07-22T00:43:57;18.70;99.90
13808;DHT22;40769;51.512;5.494;2023-07-22T00:46:23;18.60;99.90
13808;DHT22;40769;51.512;5.494;2023-07-22T00:48:50;18.60;99.90
13808;DHT22;40769;51.512;5.494;2023-07-22T00:51:16;18.70;99.90
13808;DHT22;40769;51.512;5.494;2023-07-22T00:53:41;18.60;99.90
13808;DHT22;40769;51.512;5.494;2023-07-22T00:56:07;18.60;99.90
13808;DHT22;40769;51.512;5.494;2023-07-22T00:58:34;18.60;99.90
13808;DHT22;40769;51.512;5.494;2023-07-22T01:00:59;18.60;99.90
13808;DHT22;40769;51.512;5.494;2023-07-22T01:03:25;18.50;99.90
13808;DHT22;40769;51.512;5.494;2023-07-22T01:05:52;18.50;99.90
13808;DHT22;40769;51.512;5.494;2023-07-22T01:08:19;18.40;99.90
13808;DHT22;40769;51.512;5.494;2023-07-22T01:10:44;19.60;99.90
13808;DHT22;40769;51.512;5.494;2023-07-22T01:13:10;18.40;99.90
13808;DHT22;40769;51.512;5.494;2023-07-22T01:15:37;18.40;99.90
13808;DHT22;40769;51.512;5.494;2023-07-22T01:18:06;18.40;99.90
13808;DHT22;40769;51.512;5.494;2023-07-22T01:20:33;18.30;99.90
13808;DHT22;40769;51.512;5.494;2023-07-22T01:22:59;18.30;99.90
13808;DHT22;40769;51.512;5.494;2023-07-22T01:25:25;18.30;99.90
13808;DHT22;40769;51.512;5.494;2023-07-22T01:27:51;18.30;99.90
13808;DHT22;40769;51.512;5.494;2023-07-22T01:30:17;17.00;99.90
13808;DHT22;40769;51.512;5.494;2023-07-22T01:32:45;18.30;99.90
13808;DHT22;40769;51.512;5.494;2023-07-22T01:35:11;18.20;99.90
13808;DHT22;40769;51.512;5.494;2023-07-22T01:37:36;18.20;99.90
13808;DHT22;40769;51.512;5.494;2023-07-22T01:40:02;18.20;99.90
13808;DHT22;40769;51.512;5.494;2023-07-22T01:42:38;18.20;99.90
13808;DHT22;40769;51.512;5.494;2023-07-22T01:45:05;18.20;99.90
13808;DHT22;40769;51.512;5.494;2023-07-22T01:47:34;18.20;99.90
13808;DHT22;40769;51.512;5.494;2023-07-22T01:50:00;18.20;99.90
13808;DHT22;40769;51.512;5.494;2023-07-22T01:52:26;18.20;99.90
13808;DHT22;40769;51.512;5.494;2023-07-22T01:54:51;18.20;99.90
13808;DHT22;40769;51.512;5.494;2023-07-22T01:57:17;18.20;99.90
13808;DHT22;40769;51.512;5.494;2023-07-22T01:59:43;18.20;99.90
13808;DHT22;40769;51.512;5.494;2023-07-22T02:02:08;18.20;99.90
13808;DHT22;40769;51.512;5.494;2023-07-22T02:04:34;18.40;99.90
13808;DHT22;40769;51.512;5.494;2023-07-22T02:07:00;18.20;99.90
13808;DHT22;40769;51.512;5.494;2023-07-22T02:09:25;18.20;99.90
13808;DHT22;40769;51.512;5.494;2023-07-22T02:11:51;18.20;99.90
13808;DHT22;40769;51.512;5.494;2023-07-22T02:14:17;18.20;99.90
13808;DHT22;40769;51.512;5.494;2023-07-22T02:16:42;18.20;99.90
13808;DHT22;40769;51.512;5.494;2023-07-22T02:19:08;18.20;99.90
13808;DHT22;40769;51.512;5.494;2023-07-22T02:21:34;18.20;99.90
13808;DHT22;40769;51.512;5.494;2023-07-22T02:23:59;18.10;99.90
13808;DHT22;40769;51.512;5.494;2023-07-22T02:26:25;18.10;99.90
13808;DHT22;40769;51.512;5.494;2023-07-22T02:28:51;18.10;99.90
13808;DHT22;40769;51.512;5.494;2023-07-22T02:31:16;18.00;99.90
13808;DHT22;40769;51.512;5.494;2023-07-22T02:33:42;18.10;99.90
13808;DHT22;40769;51.512;5.494;2023-07-22T02:36:08;18.10;99.90
13808;DHT22;40769;51.512;5.494;2023-07-22T02:38:34;18.10;99.90
13808;DHT22;40769;51.512;5.494;2023-07-22T02:41:03;18.00;99.90
13808;DHT22;40769;51.512;5.494;2023-07-22T02:43:32;18.00;99.90
13808;DHT22;40769;51.512;5.494;2023-07-22T02:46:00;18.00;99.90
13808;DHT22;40769;51.512;5.494;2023-07-22T02:48:26;18.00;99.90
13808;DHT22;40769;51.512;5.494;2023-07-22T02:50:52;18.00;99.90
13808;DHT22;40769;51.512;5.494;2023-07-22T02:53:17;18.00;99.90
13808;DHT22;40769;51.512;5.494;2023-07-22T02:55:44;17.90;99.90
13808;DHT22;40769;51.512;5.494;2023-07-22T02:58:11;17.90;99.90
13808;DHT22;40769;51.512;5.494;2023-07-22T03:00:37;17.80;99.90
13808;DHT22;40769;51.512;5.494;2023-07-22T03:03:04;17.80;99.90
13808;DHT22;40769;51.512;5.494;2023-07-22T03:05:31;17.70;99.90
13808;DHT22;40769;51.512;5.494;2023-07-22T03:07:59;17.70;99.90
13808;DHT22;40769;51.512;5.494;2023-07-22T03:10:25;17.60;99.90
13808;DHT22;40769;51.512;5.494;2023-07-22T03:12:51;18.70;99.90
13808;DHT22;40769;51.512;5.494;2023-07-22T03:15:23;17.50;99.90
13808;DHT22;40769;51.512;5.494;2023-07-22T03:17:51;17.40;99.90
13808;DHT22;40769;51.512;5.494;2023-07-22T03:20:17;17.40;99.90
13808;DHT22;40769;51.512;5.494;2023-07-22T03:22:45;17.30;99.90
13808;DHT22;40769;51.512;5.494;2023-07-22T03:25:12;17.20;99.90
13808;DHT22;40769;51.512;5.494;2023-07-22T03:27:39;17.20;99.90
13808;DHT22;40769;51.512;5.494;2023-07-22T03:30:06;17.10;99.90
13808;DHT22;40769;51.512;5.494;2023-07-22T03:32:34;17.10;99.90
13808;DHT22;40769;51.512;5.494;2023-07-22T03:35:00;17.00;99.90
13808;DHT22;40769;51.512;5.494;2023-07-22T03:37:27;16.00;99.90
13808;DHT22;40769;51.512;5.494;2023-07-22T03:39:53;16.90;99.90
13808;DHT22;40769;51.512;5.494;2023-07-22T03:42:19;16.90;99.90
13808;DHT22;40769;51.512;5.494;2023-07-22T03:44:44;16.90;99.90
13808;DHT22;40769;51.512;5.494;2023-07-22T03:47:10;16.80;99.90
13808;DHT22;40769;51.512;5.494;2023-07-22T03:49:35;16.80;99.90
13808;DHT22;40769;51.512;5.494;2023-07-22T03:52:01;15.90;99.90
13808;DHT22;40769;51.512;5.494;2023-07-22T03:54:27;16.70;99.90
13808;DHT22;40769;51.512;5.494;2023-07-22T03:56:52;16.70;99.90
13808;DHT22;40769;51.512;5.494;2023-07-22T03:59:18;16.70;99.90
13808;DHT22;40769;51.512;5.494;2023-07-22T04:01:43;16.60;99.90
13808;DHT22;40769;51.512;5.494;2023-07-22T04:04:09;16.60;99.90
13808;DHT22;40769;51.512;5.494;2023-07-22T04:06:35;16.60;99.90
13808;DHT22;40769;51.512;5.494;2023-07-22T04:09:00;16.60;99.90
13808;DHT22;40769;51.512;5.494;2023-07-22T04:11:26;16.60;99.90
13808;DHT22;40769;51.512;5.494;2023-07-22T04:13:53;16.60;99.90
13808;DHT22;40769;51.512;5.494;2023-07-22T04:16:19;16.60;99.90
13808;DHT22;40769;51.512;5.494;2023-07-22T04:18:44;16.60;99.90
13808;DHT22;40769;51.512;5.494;2023-07-22T04:21:10;16.60;99.90
13808;DHT22;40769;51.512;5.494;2023-07-22T04:23:38;16.60;99.90
13808;DHT22;40769;51.512;5.494;2023-07-22T04:26:04;16.60;99.90
13808;DHT22;40769;51.512;5.494;2023-07-22T04:28:30;16.60;99.90
13808;DHT22;40769;51.512;5.494;2023-07-22T04:30:58;16.60;99.90
13808;DHT22;40769;51.512;5.494;2023-07-22T04:33:24;17.20;99.90
13808;DHT22;40769;51.512;5.494;2023-07-22T04:35:53;16.60;99.90
13808;DHT22;40769;51.512;5.494;2023-07-22T04:38:19;16.60;99.90
13808;DHT22;40769;51.512;5.494;2023-07-22T04:40:45;16.60;99.90
13808;DHT22;40769;51.512;5.494;2023-07-22T04:43:10;16.60;99.90
13808;DHT22;40769;51.512;5.494;2023-07-22T04:45:37;16.60;99.90
13808;DHT22;40769;51.512;5.494;2023-07-22T04:48:06;16.60;99.90
13808;DHT22;40769;51.512;5.494;2023-07-22T04:50:35;16.70;99.90
13808;DHT22;40769;51.512;5.494;2023-07-22T04:53:00;16.70;99.90
13808;DHT22;40769;51.512;5.494;2023-07-22T04:55:26;16.70;99.90
13808;DHT22;40769;51.512;5.494;2023-07-22T04:57:55;16.80;99.90
13808;DHT22;40769;51.512;5.494;2023-07-22T05:00:20;16.80;99.90
13808;DHT22;40769;51.512;5.494;2023-07-22T05:02:47;17.00;99.90
13808;DHT22;40769;51.512;5.494;2023-07-22T05:05:14;17.00;99.90
13808;DHT22;40769;51.512;5.494;2023-07-22T05:07:39;17.10;99.90
13808;DHT22;40769;51.512;5.494;2023-07-22T05:10:06;17.20;99.90
13808;DHT22;40769;51.512;5.494;2023-07-22T05:12:37;17.30;99.90
13808;DHT22;40769;51.512;5.494;2023-07-22T05:15:05;17.40;99.90
13808;DHT22;40769;51.512;5.494;2023-07-22T05:17:31;17.40;99.90
13808;DHT22;40769;51.512;5.494;2023-07-22T05:19:57;17.60;99.90
13808;DHT22;40769;51.512;5.494;2023-07-22T05:22:23;17.60;99.90
13808;DHT22;40769;51.512;5.494;2023-07-22T05:24:49;17.70;99.90
13808;DHT22;40769;51.512;5.494;2023-07-22T05:27:15;17.80;99.90
13808;DHT22;40769;51.512;5.494;2023-07-22T05:29:41;17.90;99.90
13808;DHT22;40769;51.512;5.494;2023-07-22T05:32:07;17.90;99.90
13808;DHT22;40769;51.512;5.494;2023-07-22T05:34:33;18.00;99.90
13808;DHT22;40769;51.512;5.494;2023-07-22T05:36:58;18.00;99.90
13808;DHT22;40769;51.512;5.494;2023-07-22T05:39:24;18.10;99.90
13808;DHT22;40769;51.512;5.494;2023-07-22T05:41:50;18.20;99.90
13808;DHT22;40769;51.512;5.494;2023-07-22T05:44:16;18.20;99.90
13808;DHT22;40769;51.512;5.494;2023-07-22T05:46:42;18.30;99.90
13808;DHT22;40769;51.512;5.494;2023-07-22T05:49:08;18.30;99.90
13808;DHT22;40769;51.512;5.494;2023-07-22T05:51:34;18.40;99.90
13808;DHT22;40769;51.512;5.494;2023-07-22T05:54:00;18.50;99.90
13808;DHT22;40769;51.512;5.494;2023-07-22T05:56:25;18.70;99.90
13808;DHT22;40769;51.512;5.494;2023-07-22T05:58:51;18.70;99.90
13808;DHT22;40769;51.512;5.494;2023-07-22T06:01:17;18.80;99.90
13808;DHT22;40769;51.512;5.494;2023-07-22T06:03:43;18.90;99.90
13808;DHT22;40769;51.512;5.494;2023-07-22T06:06:09;18.90;99.90
13808;DHT22;40769;51.512;5.494;2023-07-22T06:08:35;18.90;99.90
13808;DHT22;40769;51.512;5.494;2023-07-22T06:11:01;19.70;99.90
13808;DHT22;40769;51.512;5.494;2023-07-22T06:13:26;19.00;99.90
13808;DHT22;40769;51.512;5.494;2023-07-22T06:15:52;19.10;99.90
13808;DHT22;40769;51.512;5.494;2023-07-22T06:18:19;19.10;99.90
13808;DHT22;40769;51.512;5.494;2023-07-22T06:20:45;19.20;99.90
13808;DHT22;40769;51.512;5.494;2023-07-22T06:23:11;19.30;99.90
13808;DHT22;40769;51.512;5.494;2023-07-22T06:25:36;19.80;99.90
13808;DHT22;40769;51.512;5.494;2023-07-22T06:28:02;19.50;99.90
13808;DHT22;40769;51.512;5.494;2023-07-22T06:30:28;19.60;99.90
13808;DHT22;40769;51.512;5.494;2023-07-22T06:32:54;19.80;99.90
13808;DHT22;40769;51.512;5.494;2023-07-22T06:35:19;19.90;99.90
13808;DHT22;40769;51.512;5.494;2023-07-22T06:37:45;20.10;99.90
13808;DHT22;40769;51.512;5.494;2023-07-22T06:40:11;20.30;99.90
13808;DHT22;40769;51.512;5.494;2023-07-22T06:42:37;20.50;99.90
13808;DHT22;40769;51.512;5.494;2023-07-22T06:45:04;20.60;99.90
13808;DHT22;40769;51.512;5.494;2023-07-22T06:47:29;20.70;99.90
13808;DHT22;40769;51.512;5.494;2023-07-22T06:49:55;20.90;99.90
13808;DHT22;40769;51.512;5.494;2023-07-22T06:52:21;21.10;99.90
13808;DHT22;40769;51.512;5.494;2023-07-22T06:54:46;21.20;99.90
13808;DHT22;40769;51.512;5.494;2023-07-22T06:57:12;21.30;99.90
13808;DHT22;40769;51.512;5.494;2023-07-22T06:59:38;21.40;99.90
13808;DHT22;40769;51.512;5.494;2023-07-22T07:02:04;21.60;99.90
13808;DHT22;40769;51.512;5.494;2023-07-22T07:04:32;21.70;99.90
13808;DHT22;40769;51.512;5.494;2023-07-22T07:06:58;21.80;99.90
13808;DHT22;40769;51.512;5.494;2023-07-22T07:09:24;22.00;99.90
13808;DHT22;40769;51.512;5.494;2023-07-22T07:11:50;22.10;99.90
13808;DHT22;40769;51.512;5.494;2023-07-22T07:14:17;22.30;99.90
13808;DHT22;40769;51.512;5.494;2023-07-22T07:16:43;22.50;99.90
13808;DHT22;40769;51.512;5.494;2023-07-22T07:19:09;22.70;99.90
13808;DHT22;40769;51.512;5.494;2023-07-22T07:21:35;22.80;99.90
13808;DHT22;40769;51.512;5.494;2023-07-22T07:24:01;22.90;99.90
13808;DHT22;40769;51.512;5.494;2023-07-22T07:26:27;23.10;99.90
13808;DHT22;40769;51.512;5.494;2023-07-22T07:28:53;23.20;99.90
13808;DHT22;40769;51.512;5.494;2023-07-22T07:31:19;23.20;99.90
13808;DHT22;40769;51.512;5.494;2023-07-22T07:33:44;23.20;99.90
13808;DHT22;40769;51.512;5.494;2023-07-22T07:36:10;23.20;99.90
13808;DHT22;40769;51.512;5.494;2023-07-22T07:38:36;23.20;99.90
13808;DHT22;40769;51.512;5.494;2023-07-22T07:41:04;23.20;99.90
13808;DHT22;40769;51.512;5.494;2023-07-22T07:43:31;23.10;99.90
13808;DHT22;40769;51.512;5.494;2023-07-22T07:46:35;23.10;99.90
13808;DHT22;40769;51.512;5.494;2023-07-22T07:49:01;23.10;99.90
13808;DHT22;40769;51.512;5.494;2023-07-22T07:51:28;23.20;99.90
13808;DHT22;40769;51.512;5.494;2023-07-22T07:53:55;23.20;99.90
13808;DHT22;40769;51.512;5.494;2023-07-22T07:56:22;23.40;99.90
13808;DHT22;40769;51.512;5.494;2023-07-22T07:58:49;23.30;99.90
13808;DHT22;40769;51.512;5.494;2023-07-22T08:01:15;23.40;99.90
13808;DHT22;40769;51.512;5.494;2023-07-22T08:03:42;23.50;99.90
13808;DHT22;40769;51.512;5.494;2023-07-22T08:06:09;23.60;99.90
13808;DHT22;40769;51.512;5.494;2023-07-22T08:08:36;23.70;99.90
13808;DHT22;40769;51.512;5.494;2023-07-22T08:11:10;23.90;99.90
13808;DHT22;40769;51.512;5.494;2023-07-22T08:13:39;24.00;99.90
13808;DHT22;40769;51.512;5.494;2023-07-22T08:16:07;24.20;99.90
13808;DHT22;40769;51.512;5.494;2023-07-22T08:18:34;24.30;99.90
13808;DHT22;40769;51.512;5.494;2023-07-22T08:21:00;24.40;99.90
13808;DHT22;40769;51.512;5.494;2023-07-22T08:23:27;24.50;99.90
13808;DHT22;40769;51.512;5.494;2023-07-22T08:25:53;24.70;99.90
13808;DHT22;40769;51.512;5.494;2023-07-22T08:28:19;24.80;99.90
13808;DHT22;40769;51.512;5.494;2023-07-22T08:30:44;24.90;99.90
13808;DHT22;40769;51.512;5.494;2023-07-22T08:33:11;24.90;99.90
13808;DHT22;40769;51.512;5.494;2023-07-22T08:35:41;24.90;99.90
13808;DHT22;40769;51.512;5.494;2023-07-22T08:38:07;24.90;99.90
13808;DHT22;40769;51.512;5.494;2023-07-22T08:40:38;24.90;99.90
13808;DHT22;40769;51.512;5.494;2023-07-22T08:43:09;24.90;99.90
13808;DHT22;40769;51.512;5.494;2023-07-22T08:45:38;24.80;99.90
13808;DHT22;40769;51.512;5.494;2023-07-22T08:48:26;24.90;99.90
13808;DHT22;40769;51.512;5.494;2023-07-22T08:51:18;25.10;99.90
13808;DHT22;40769;51.512;5.494;2023-07-22T08:53:45;25.20;99.90
13808;DHT22;40769;51.512;5.494;2023-07-22T08:56:11;25.40;99.90
13808;DHT22;40769;51.512;5.494;2023-07-22T08:58:37;25.50;99.90
13808;DHT22;40769;51.512;5.494;2023-07-22T09:01:05;25.70;99.90
13808;DHT22;40769;51.512;5.494;2023-07-22T09:03:32;26.00;99.90
13808;DHT22;40769;51.512;5.494;2023-07-22T09:05:58;26.30;99.90
13808;DHT22;40769;51.512;5.494;2023-07-22T09:08:24;26.60;99.90
13808;DHT22;40769;51.512;5.494;2023-07-22T09:10:49;26.80;99.90
13808;DHT22;40769;51.512;5.494;2023-07-22T09:13:18;27.10;99.90
13808;DHT22;40769;51.512;5.494;2023-07-22T09:15:45;27.30;99.90
13808;DHT22;40769;51.512;5.494;2023-07-22T09:18:11;27.70;99.90
13808;DHT22;40769;51.512;5.494;2023-07-22T09:20:36;27.50;99.90
13808;DHT22;40769;51.512;5.494;2023-07-22T09:23:02;27.50;99.90
13808;DHT22;40769;51.512;5.494;2023-07-22T09:25:28;27.60;99.90
13808;DHT22;40769;51.512;5.494;2023-07-22T09:27:57;27.60;99.90
13808;DHT22;40769;51.512;5.494;2023-07-22T09:32:50;27.60;99.90
13808;DHT22;40769;51.512;5.494;2023-07-22T09:35:17;27.60;99.90
13808;DHT22;40769;51.512;5.494;2023-07-22T09:37:42;27.70;99.90
13808;DHT22;40769;51.512;5.494;2023-07-22T09:40:19;27.70;99.90
13808;DHT22;40769;51.512;5.494;2023-07-22T09:42:46;27.70;99.90
13808;DHT22;40769;51.512;5.494;2023-07-22T09:45:12;27.80;99.90
13808;DHT22;40769;51.512;5.494;2023-07-22T09:47:46;27.90;99.90
13808;DHT22;40769;51.512;5.494;2023-07-22T09:50:16;27.90;99.90
13808;DHT22;40769;51.512;5.494;2023-07-22T09:52:47;28.00;99.90
13808;DHT22;40769;51.512;5.494;2023-07-22T09:55:15;28.00;99.90
13808;DHT22;40769;51.512;5.494;2023-07-22T09:57:44;27.90;99.90
13808;DHT22;40769;51.512;5.494;2023-07-22T10:00:12;27.80;99.90
13808;DHT22;40769;51.512;5.494;2023-07-22T10:02:41;27.70;99.90
13808;DHT22;40769;51.512;5.494;2023-07-22T10:05:12;27.50;99.90
13808;DHT22;40769;51.512;5.494;2023-07-22T10:07:42;27.30;99.90
13808;DHT22;40769;51.512;5.494;2023-07-22T10:10:11;27.20;99.90
13808;DHT22;40769;51.512;5.494;2023-07-22T10:12:40;27.10;99.90
13808;DHT22;40769;51.512;5.494;2023-07-22T10:15:08;27.00;99.90
13808;DHT22;40769;51.512;5.494;2023-07-22T10:17:34;26.90;99.90
13808;DHT22;40769;51.512;5.494;2023-07-22T10:20:02;26.80;99.90
13808;DHT22;40769;51.512;5.494;2023-07-22T10:22:34;26.80;99.90
13808;DHT22;40769;51.512;5.494;2023-07-22T10:25:03;26.80;99.90
13808;DHT22;40769;51.512;5.494;2023-07-22T10:27:31;26.80;99.90
13808;DHT22;40769;51.512;5.494;2023-07-22T10:29:56;26.80;99.90
13808;DHT22;40769;51.512;5.494;2023-07-22T10:32:22;26.90;99.90
13808;DHT22;40769;51.512;5.494;2023-07-22T10:34:48;27.00;99.90
13808;DHT22;40769;51.512;5.494;2023-07-22T10:37:14;27.10;99.90
13808;DHT22;40769;51.512;5.494;2023-07-22T10:39:42;27.20;99.90
13808;DHT22;40769;51.512;5.494;2023-07-22T10:42:08;27.50;99.90
13808;DHT22;40769;51.512;5.494;2023-07-22T10:44:36;27.50;99.90
13808;DHT22;40769;51.512;5.494;2023-07-22T10:47:04;27.70;99.90
13808;DHT22;40769;51.512;5.494;2023-07-22T10:49:44;27.80;99.90
13808;DHT22;40769;51.512;5.494;2023-07-22T10:52:11;27.90;99.90
13808;DHT22;40769;51.512;5.494;2023-07-22T10:54:44;28.00;99.90
13808;DHT22;40769;51.512;5.494;2023-07-22T10:59:51;28.20;99.90
13808;DHT22;40769;51.512;5.494;2023-07-22T11:02:25;28.30;99.90
13808;DHT22;40769;51.512;5.494;2023-07-22T11:04:51;28.30;99.90
13808;DHT22;40769;51.512;5.494;2023-07-22T11:07:42;28.40;99.90
13808;DHT22;40769;51.512;5.494;2023-07-22T11:10:16;28.50;99.90
13808;DHT22;40769;51.512;5.494;2023-07-22T11:12:44;28.70;99.90
13808;DHT22;40769;51.512;5.494;2023-07-22T11:15:11;28.80;99.90
13808;DHT22;40769;51.512;5.494;2023-07-22T11:17:37;28.90;99.90
13808;DHT22;40769;51.512;5.494;2023-07-22T11:20:03;28.80;99.90
13808;DHT22;40769;51.512;5.494;2023-07-22T11:22:29;28.80;99.90
13808;DHT22;40769;51.512;5.494;2023-07-22T11:24:55;28.80;99.90
13808;DHT22;40769;51.512;5.494;2023-07-22T11:27:23;28.60;99.90
13808;DHT22;40769;51.512;5.494;2023-07-22T11:29:49;28.60;99.90
13808;DHT22;40769;51.512;5.494;2023-07-22T11:32:16;28.60;99.90
13808;DHT22;40769;51.512;5.494;2023-07-22T11:34:42;28.50;99.90
13808;DHT22;40769;51.512;5.494;2023-07-22T11:37:10;28.50;99.90
13808;DHT22;40769;51.512;5.494;2023-07-22T11:39:36;28.40;99.90
13808;DHT22;40769;51.512;5.494;2023-07-22T11:42:03;28.30;99.90
13808;DHT22;40769;51.512;5.494;2023-07-22T11:44:30;28.20;99.90
13808;DHT22;40769;51.512;5.494;2023-07-22T11:47:04;28.10;99.90
13808;DHT22;40769;51.512;5.494;2023-07-22T11:49:34;28.10;99.90
13808;DHT22;40769;51.512;5.494;2023-07-22T11:52:03;28.10;99.90
13808;DHT22;40769;51.512;5.494;2023-07-22T11:54:30;28.20;99.90
13808;DHT22;40769;51.512;5.494;2023-07-22T11:56:56;28.20;99.90
13808;DHT22;40769;51.512;5.494;2023-07-22T11:59:39;28.30;99.90
13808;DHT22;40769;51.512;5.494;2023-07-22T12:02:05;28.30;98.70
13808;DHT22;40769;51.512;5.494;2023-07-22T12:04:32;28.40;99.90
13808;DHT22;40769;51.512;5.494;2023-07-22T12:06:58;28.40;99.90
13808;DHT22;40769;51.512;5.494;2023-07-22T12:09:25;28.40;99.80
13808;DHT22;40769;51.512;5.494;2023-07-22T12:11:58;28.50;99.40
13808;DHT22;40769;51.512;5.494;2023-07-22T12:14:32;28.50;98.00
13808;DHT22;40769;51.512;5.494;2023-07-22T12:16:57;28.50;98.60
13808;DHT22;40769;51.512;5.494;2023-07-22T12:19:23;28.50;98.20
13808;DHT22;40769;51.512;5.494;2023-07-22T12:21:49;28.40;98.10
13808;DHT22;40769;51.512;5.494;2023-07-22T12:24:15;28.40;98.20
13808;DHT22;40769;51.512;5.494;2023-07-22T12:26:41;28.40;97.70
13808;DHT22;40769;51.512;5.494;2023-07-22T12:29:08;28.40;97.30
13808;DHT22;40769;51.512;5.494;2023-07-22T12:31:33;28.40;97.00
13808;DHT22;40769;51.512;5.494;2023-07-22T12:33:59;28.30;97.00
13808;DHT22;40769;51.512;5.494;2023-07-22T12:36:25;28.40;97.20
13808;DHT22;40769;51.512;5.494;2023-07-22T12:38:51;28.40;97.00
13808;DHT22;40769;51.512;5.494;2023-07-22T12:41:16;28.50;96.90
13808;DHT22;40769;51.512;5.494;2023-07-22T12:43:42;28.50;97.00
13808;DHT22;40769;51.512;5.494;2023-07-22T12:46:08;28.60;96.80
13808;DHT22;40769;51.512;5.494;2023-07-22T12:48:33;28.60;96.60
13808;DHT22;40769;51.512;5.494;2023-07-22T12:50:59;28.70;96.40
13808;DHT22;40769;51.512;5.494;2023-07-22T12:53:26;28.80;96.10
13808;DHT22;40769;51.512;5.494;2023-07-22T12:55:51;28.80;95.70
13808;DHT22;40769;51.512;5.494;2023-07-22T12:58:17;28.80;95.30
13808;DHT22;40769;51.512;5.494;2023-07-22T13:00:46;28.70;95.40
13808;DHT22;40769;51.512;5.494;2023-07-22T13:03:12;28.70;94.80
13808;DHT22;40769;51.512;5.494;2023-07-22T13:05:38;28.70;95.40
13808;DHT22;40769;51.512;5.494;2023-07-22T13:08:03;28.60;94.60
13808;DHT22;40769;51.512;5.494;2023-07-22T13:10:29;28.60;94.50
13808;DHT22;40769;51.512;5.494;2023-07-22T13:12:56;28.50;94.20
13808;DHT22;40769;51.512;5.494;2023-07-22T13:15:21;28.50;94.10
13808;DHT22;40769;51.512;5.494;2023-07-22T13:17:47;28.50;93.90
13808;DHT22;40769;51.512;5.494;2023-07-22T13:20:13;28.60;94.00
13808;DHT22;40769;51.512;5.494;2023-07-22T13:22:39;28.80;93.90
13808;DHT22;40769;51.512;5.494;2023-07-22T13:25:05;28.90;93.60
13808;DHT22;40769;51.512;5.494;2023-07-22T13:27:31;29.00;93.60
13808;DHT22;40769;51.512;5.494;2023-07-22T13:29:57;29.20;93.10
13808;DHT22;40769;51.512;5.494;2023-07-22T13:32:23;29.40;92.80
13808;DHT22;40769;51.512;5.494;2023-07-22T13:34:49;29.50;92.20
13808;DHT22;40769;51.512;5.494;2023-07-22T13:37:15;29.50;91.90
13808;DHT22;40769;51.512;5.494;2023-07-22T13:39:41;29.60;91.70
13808;DHT22;40769;51.512;5.494;2023-07-22T13:42:07;29.60;91.00
13808;DHT22;40769;51.512;5.494;2023-07-22T13:44:33;29.60;90.60
13808;DHT22;40769;51.512;5.494;2023-07-22T13:46:59;29.60;90.30
13808;DHT22;40769;51.512;5.494;2023-07-22T13:49:25;29.60;90.60
13808;DHT22;40769;51.512;5.494;2023-07-22T13:51:50;29.70;90.40
13808;DHT22;40769;51.512;5.494;2023-07-22T13:54:16;29.80;90.50
13808;DHT22;40769;51.512;5.494;2023-07-22T13:56:42;30.00;90.30
13808;DHT22;40769;51.512;5.494;2023-07-22T13:59:09;30.20;90.50
13808;DHT22;40769;51.512;5.494;2023-07-22T14:01:35;30.40;90.20
13808;DHT22;40769;51.512;5.494;2023-07-22T14:04:00;30.60;89.20
13808;DHT22;40769;51.512;5.494;2023-07-22T14:06:26;30.70;87.60
13808;DHT22;40769;51.512;5.494;2023-07-22T14:08:52;30.80;87.10
13808;DHT22;40769;51.512;5.494;2023-07-22T14:11:18;30.70;86.10
13808;DHT22;40769;51.512;5.494;2023-07-22T14:13:43;30.70;85.40
13808;DHT22;40769;51.512;5.494;2023-07-22T14:16:09;30.70;83.70
13808;DHT22;40769;51.512;5.494;2023-07-22T14:18:35;30.70;83.50
13808;DHT22;40769;51.512;5.494;2023-07-22T14:21:00;30.60;82.70
13808;DHT22;40769;51.512;5.494;2023-07-22T14:23:26;30.60;82.40
13808;DHT22;40769;51.512;5.494;2023-07-22T14:25:52;30.60;81.90
13808;DHT22;40769;51.512;5.494;2023-07-22T14:28:17;30.50;82.00
13808;DHT22;40769;51.512;5.494;2023-07-22T14:30:43;30.40;82.00
13808;DHT22;40769;51.512;5.494;2023-07-22T14:33:09;30.40;81.30
13808;DHT22;40769;51.512;5.494;2023-07-22T14:35:35;30.40;80.60
13808;DHT22;40769;51.512;5.494;2023-07-22T14:38:01;30.30;80.20
13808;DHT22;40769;51.512;5.494;2023-07-22T14:40:27;30.20;79.90
13808;DHT22;40769;51.512;5.494;2023-07-22T14:42:53;30.10;79.90
13808;DHT22;40769;51.512;5.494;2023-07-22T14:45:19;30.00;79.10
13808;DHT22;40769;51.512;5.494;2023-07-22T14:47:44;29.80;78.70
13808;DHT22;40769;51.512;5.494;2023-07-22T14:50:10;29.50;78.50
13808;DHT22;40769;51.512;5.494;2023-07-22T14:52:36;29.30;78.20
13808;DHT22;40769;51.512;5.494;2023-07-22T14:55:02;29.10;78.20
13808;DHT22;40769;51.512;5.494;2023-07-22T14:57:27;28.80;77.80
13808;DHT22;40769;51.512;5.494;2023-07-22T14:59:56;28.50;77.80
13808;DHT22;40769;51.512;5.494;2023-07-22T15:02:21;28.20;78.10
13808;DHT22;40769;51.512;5.494;2023-07-22T15:04:48;27.90;78.40
13808;DHT22;40769;51.512;5.494;2023-07-22T15:07:13;27.60;78.90
13808;DHT22;40769;51.512;5.494;2023-07-22T15:09:39;27.40;79.40
13808;DHT22;40769;51.512;5.494;2023-07-22T15:12:06;27.10;79.90
13808;DHT22;40769;51.512;5.494;2023-07-22T15:14:33;26.90;80.70
13808;DHT22;40769;51.512;5.494;2023-07-22T15:16:58;26.70;81.50
13808;DHT22;40769;51.512;5.494;2023-07-22T15:19:24;26.50;82.40
13808;DHT22;40769;51.512;5.494;2023-07-22T15:21:50;26.30;83.40
13808;DHT22;40769;51.512;5.494;2023-07-22T15:24:16;26.30;84.60
13808;DHT22;40769;51.512;5.494;2023-07-22T15:26:42;26.20;86.00
13808;DHT22;40769;51.512;5.494;2023-07-22T15:29:07;26.20;87.80
13808;DHT22;40769;51.512;5.494;2023-07-22T15:31:33;26.30;89.00
13808;DHT22;40769;51.512;5.494;2023-07-22T15:33:59;26.30;90.00